Time;durP1;ratioP1;P1;durP2;ratioP2;P2;SDS_P1;SDS_P2;PMS_P1;PMS_P2;Temp;Humidity;BMP_temperature;BMP_pressure;BME280_temperature;BME280_humidity;BME280_pressure;Samples;Min_cycle;Max_cycle;Signal;HPM_P1;HPM_P2
2023/12/13 00:02:11;;;;;;;6.40;1.40;;;6.50;99.90;;;;;;4946603;28;20949;-55
2023/12/13 00:04:37;;;;;;;1.33;1.23;;;6.50;99.90;;;;;;4950371;28;20434;-57
2023/12/13 00:07:03;;;;;;;1.20;1.10;;;6.50;99.90;;;;;;4949119;28;20185;-54
2023/12/13 00:09:28;;;;;;;1.10;1.10;;;6.50;99.90;;;;;;4950964;28;20194;-55
2023/12/13 00:11:54;;;;;;;1.03;0.97;;;6.50;99.90;;;;;;4952418;28;20953;-57
2023/12/13 00:14:21;;;;;;;1.37;0.90;;;6.50;99.90;;;;;;4951889;28;20273;-55
2023/12/13 00:16:46;;;;;;;1.23;1.13;;;6.50;99.90;;;;;;4951504;28;20194;-57
2023/12/13 00:19:12;;;;;;;1.20;1.10;;;6.50;99.90;;;;;;4952151;28;20422;-56
2023/12/13 00:21:37;;;;;;;2.30;1.73;;;6.60;99.90;;;;;;4950364;28;20191;-54
2023/12/13 00:24:03;;;;;;;1.93;1.70;;;6.60;99.90;;;;;;4948488;28;20237;-54
2023/12/13 00:26:29;;;;;;;3.33;1.70;;;6.60;99.90;;;;;;4949380;28;20182;-57
2023/12/13 00:28:55;;;;;;;1.60;1.50;;;6.60;99.90;;;;;;4953877;28;20541;-56
2023/12/13 00:31:21;;;;;;;1.90;1.70;;;6.60;99.90;;;;;;4946741;28;20434;-56
2023/12/13 00:33:47;;;;;;;1.57;1.47;;;6.60;99.90;;;;;;4951052;28;20205;-58
2023/12/13 00:36:12;;;;;;;3.87;2.20;;;6.60;99.90;;;;;;4950296;28;20182;-54
2023/12/13 00:38:38;;;;;;;2.47;2.10;;;6.60;99.90;;;;;;4947663;28;20287;-55
2023/12/13 00:41:04;;;;;;;2.37;1.90;;;6.60;99.90;;;;;;4948211;28;20198;-55
2023/12/13 00:43:30;;;;;;;2.10;1.60;;;6.60;99.90;;;;;;4950411;28;20337;-56
2023/12/13 00:45:55;;;;;;;2.03;1.80;;;6.60;99.90;;;;;;4951771;28;20513;-55
2023/12/13 00:48:21;;;;;;;4.83;2.80;;;6.60;99.90;;;;;;4950735;28;20203;-56
2023/12/13 00:50:46;;;;;;;4.20;2.50;;;6.50;99.90;;;;;;4949278;28;20209;-54
2023/12/13 00:53:12;;;;;;;3.70;2.50;;;6.50;99.90;;;;;;4949790;28;20210;-54
2023/12/13 00:55:38;;;;;;;2.83;2.13;;;6.50;99.90;;;;;;4950251;28;20556;-57
2023/12/13 00:58:04;;;;;;;2.00;1.80;;;6.50;99.90;;;;;;4949337;28;20199;-55
2023/12/13 01:00:29;;;;;;;3.07;2.13;;;6.50;99.90;;;;;;4951294;28;20418;-59
2023/12/13 01:02:55;;;;;;;7.97;4.13;;;6.50;99.90;;;;;;4946199;28;20207;-54
2023/12/13 01:05:21;;;;;;;6.93;3.23;;;6.50;99.90;;;;;;4948090;28;20265;-56
2023/12/13 01:07:47;;;;;;;3.73;1.97;;;6.60;99.90;;;;;;4946938;28;20490;-55
2023/12/13 01:10:12;;;;;;;1.73;1.63;;;6.60;99.90;;;;;;4946968;28;20195;-54
2023/12/13 01:12:41;;;;;;;2.80;1.50;;;6.60;99.90;;;;;;4945032;28;20700;-56
2023/12/13 01:15:09;;;;;;;1.73;1.37;;;6.50;99.90;;;;;;4948971;28;20178;-54
2023/12/13 01:17:34;;;;;;;1.97;1.57;;;6.50;99.90;;;;;;4950428;28;20538;-55
2023/12/13 01:20:00;;;;;;;1.50;1.40;;;6.50;99.90;;;;;;4950165;28;20422;-57
2023/12/13 01:22:26;;;;;;;2.00;1.70;;;6.50;99.90;;;;;;4949858;28;20238;-57
2023/12/13 01:24:52;;;;;;;1.53;1.43;;;6.50;99.90;;;;;;4949284;28;20430;-55
2023/12/13 01:27:17;;;;;;;1.60;1.10;;;6.50;99.90;;;;;;4949405;28;20187;-55
2023/12/13 01:29:43;;;;;;;1.10;1.00;;;6.50;99.90;;;;;;4946063;28;20233;-56
2023/12/13 01:32:08;;;;;;;1.00;0.90;;;6.50;99.90;;;;;;4951104;28;20183;-57
2023/12/13 01:34:34;;;;;;;1.43;1.10;;;6.50;99.90;;;;;;4951014;28;20716;-55
2023/12/13 01:37:01;;;;;;;0.80;0.80;;;6.40;99.90;;;;;;4950262;28;20217;-55
2023/12/13 01:39:27;;;;;;;3.30;1.03;;;6.50;99.90;;;;;;4949682;28;20181;-57
2023/12/13 01:41:52;;;;;;;1.03;0.90;;;6.50;99.90;;;;;;4946972;28;20883;-54
2023/12/13 01:44:18;;;;;;;0.80;0.80;;;6.50;99.90;;;;;;4948957;28;20632;-54
2023/12/13 01:46:46;;;;;;;0.70;0.70;;;6.40;99.90;;;;;;4944739;28;20237;-56
2023/12/13 01:49:13;;;;;;;0.70;0.70;;;6.40;99.90;;;;;;4944679;28;20198;-56
2023/12/13 01:51:39;;;;;;;0.73;0.73;;;6.40;99.90;;;;;;4952454;28;20477;-53
2023/12/13 01:54:09;;;;;;;0.80;0.80;;;6.40;99.90;;;;;;4945059;28;20442;-57
2023/12/13 01:56:38;;;;;;;0.73;0.73;;;6.40;99.90;;;;;;4944296;28;20437;-54
2023/12/13 01:59:04;;;;;;;3.07;0.70;;;6.50;99.90;;;;;;4948560;28;20561;-55
2023/12/13 02:01:30;;;;;;;0.90;0.90;;;6.40;99.90;;;;;;4953766;28;20509;-56
2023/12/13 02:03:55;;;;;;;1.10;0.90;;;6.40;99.90;;;;;;4951937;28;20238;-56
2023/12/13 02:06:21;;;;;;;1.53;0.90;;;6.40;99.90;;;;;;4950340;28;20859;-55
2023/12/13 02:08:47;;;;;;;0.80;0.80;;;6.40;99.90;;;;;;4953787;28;20190;-57
2023/12/13 02:11:13;;;;;;;0.80;0.80;;;6.40;99.90;;;;;;4949938;28;20277;-53
2023/12/13 02:13:39;;;;;;;1.13;1.03;;;6.40;99.90;;;;;;4955670;28;20217;-56
2023/12/13 02:16:05;;;;;;;2.43;0.90;;;6.30;99.90;;;;;;4949552;28;21003;-54
2023/12/13 02:18:31;;;;;;;1.90;0.80;;;6.30;99.90;;;;;;4953633;28;20492;-54
2023/12/13 02:20:57;;;;;;;1.30;1.20;;;6.30;99.90;;;;;;4953831;28;20803;-56
2023/12/13 02:23:22;;;;;;;4.90;1.03;;;6.20;99.90;;;;;;4950442;28;20345;-57
2023/12/13 02:25:55;;;;;;;1.00;1.00;;;6.20;99.90;;;;;;4951439;28;20185;-58
2023/12/13 02:28:23;;;;;;;2.30;1.60;;;6.10;99.90;;;;;;4959759;28;20182;-55
2023/12/13 02:30:52;;;;;;;1.77;1.33;;;6.10;99.90;;;;;;4950590;28;20442;-55
2023/12/13 02:33:18;;;;;;;4.30;1.20;;;6.10;99.90;;;;;;4950741;28;20449;-55
2023/12/13 02:35:44;;;;;;;1.50;1.40;;;6.00;99.90;;;;;;4950106;28;20441;-56
2023/12/13 02:38:09;;;;;;;1.97;1.60;;;6.00;99.90;;;;;;4953075;28;20210;-54
2023/12/13 02:40:35;;;;;;;3.77;1.83;;;6.00;99.90;;;;;;4950098;28;20194;-55
2023/12/13 02:43:00;;;;;;;1.70;1.60;;;6.00;99.90;;;;;;4949949;28;20214;-55
2023/12/13 02:45:26;;;;;;;2.03;1.40;;;6.00;99.90;;;;;;4950002;28;20182;-57
2023/12/13 02:47:52;;;;;;;1.27;1.20;;;6.00;99.90;;;;;;4951013;28;20183;-56
2023/12/13 02:50:18;;;;;;;2.40;1.50;;;6.00;99.90;;;;;;4948087;28;20588;-54
2023/12/13 02:52:44;;;;;;;1.60;1.50;;;5.90;99.90;;;;;;4953044;28;20461;-54
2023/12/13 02:55:10;;;;;;;1.90;1.80;;;5.90;99.90;;;;;;4953268;28;20515;-55
2023/12/13 02:57:37;;;;;;;4.67;2.53;;;5.80;99.90;;;;;;4946120;28;20226;-56
2023/12/13 03:00:04;;;;;;;6.63;3.13;;;5.80;99.90;;;;;;4950289;28;20192;-56
2023/12/13 03:02:30;;;;;;;4.50;2.50;;;5.80;99.90;;;;;;4951142;28;20549;-53
2023/12/13 03:04:55;;;;;;;6.83;2.70;;;5.80;99.90;;;;;;4950323;28;20417;-55
2023/12/13 03:07:22;;;;;;;4.30;3.17;;;5.80;99.90;;;;;;4947424;28;20442;-55
2023/12/13 03:09:48;;;;;;;7.33;2.90;;;5.80;99.90;;;;;;4953179;28;20192;-55
2023/12/13 03:12:13;;;;;;;4.23;2.70;;;5.70;99.90;;;;;;4953672;28;20422;-54
2023/12/13 03:14:39;;;;;;;5.00;3.30;;;5.70;99.90;;;;;;4947725;28;20186;-54
2023/12/13 03:17:05;;;;;;;6.47;2.83;;;5.70;99.90;;;;;;4951432;28;20187;-54
2023/12/13 03:19:30;;;;;;;6.20;2.97;;;5.60;99.90;;;;;;4953713;28;20418;-53
2023/12/13 03:21:56;;;;;;;7.80;3.93;;;5.60;99.90;;;;;;4949663;28;20765;-52
2023/12/13 03:24:22;;;;;;;4.97;2.87;;;5.60;99.90;;;;;;4946792;28;20201;-54
2023/12/13 03:26:47;;;;;;;5.37;3.60;;;5.60;99.90;;;;;;4949588;28;20202;-55
2023/12/13 03:29:13;;;;;;;3.60;2.87;;;5.60;99.90;;;;;;4952078;28;20226;-53
2023/12/13 03:31:38;;;;;;;6.03;3.10;;;5.60;99.90;;;;;;4948345;28;20632;-55
2023/12/13 03:34:04;;;;;;;4.20;2.37;;;5.60;99.90;;;;;;4952925;28;20214;-53
2023/12/13 03:36:30;;;;;;;2.10;1.73;;;5.60;99.90;;;;;;4953012;28;20600;-56
2023/12/13 03:38:55;;;;;;;2.50;2.17;;;5.60;99.90;;;;;;4951530;28;20213;-52
2023/12/13 03:41:21;;;;;;;3.10;2.17;;;5.60;99.90;;;;;;4952413;28;20555;-57
2023/12/13 03:43:46;;;;;;;2.80;1.57;;;5.60;99.90;;;;;;4951635;28;20198;-53
2023/12/13 03:46:12;;;;;;;3.47;1.67;;;5.60;99.90;;;;;;4951648;28;20178;-56
2023/12/13 03:48:38;;;;;;;2.00;1.70;;;5.70;99.90;;;;;;4951080;28;20174;-55
2023/12/13 03:51:05;;;;;;;2.60;1.60;;;5.80;99.90;;;;;;4951894;28;20578;-53
2023/12/13 03:53:31;;;;;;;2.70;1.50;;;5.80;99.90;;;;;;4951599;28;20310;-54
2023/12/13 03:55:57;;;;;;;1.97;1.77;;;5.90;99.90;;;;;;4951828;28;20429;-54
2023/12/13 03:58:22;;;;;;;3.10;1.80;;;5.90;99.90;;;;;;4943374;28;20466;-56
2023/12/13 04:00:48;;;;;;;1.67;1.57;;;5.90;99.90;;;;;;4949356;28;20797;-52
2023/12/13 04:03:13;;;;;;;1.60;1.50;;;5.90;99.90;;;;;;4951693;28;20206;-55
2023/12/13 04:05:39;;;;;;;2.10;1.80;;;5.90;99.90;;;;;;4948891;28;20184;-54
2023/12/13 04:08:06;;;;;;;2.97;2.10;;;5.90;99.90;;;;;;4946022;28;20265;-56
2023/12/13 04:10:32;;;;;;;3.20;2.17;;;6.00;99.90;;;;;;4946464;28;20623;-54
2023/12/13 04:12:57;;;;;;;6.07;1.93;;;6.00;99.90;;;;;;4949783;28;20449;-53
2023/12/13 04:15:23;;;;;;;4.40;2.50;;;6.00;99.90;;;;;;4950597;28;20344;-54
2023/12/13 04:17:49;;;;;;;3.50;2.33;;;6.00;99.90;;;;;;4946872;28;20273;-54
2023/12/13 04:20:15;;;;;;;3.00;2.40;;;5.90;99.90;;;;;;4950071;28;20246;-54
2023/12/13 04:22:40;;;;;;;5.27;2.73;;;5.90;99.90;;;;;;4950388;28;20458;-54
2023/12/13 04:25:06;;;;;;;4.53;2.20;;;5.90;99.90;;;;;;4950100;28;20254;-53
2023/12/13 04:27:32;;;;;;;2.97;2.27;;;5.80;99.90;;;;;;4951905;28;20608;-53
2023/12/13 04:29:57;;;;;;;3.50;2.57;;;5.80;99.90;;;;;;4951185;28;20269;-54
2023/12/13 04:32:23;;;;;;;8.13;3.60;;;5.80;99.90;;;;;;4948461;28;20214;-53
2023/12/13 04:34:49;;;;;;;6.93;3.40;;;5.80;99.90;;;;;;4955214;28;20236;-58
2023/12/13 04:37:14;;;;;;;6.30;3.80;;;5.70;99.90;;;;;;4949465;28;20212;-53
2023/12/13 04:39:40;;;;;;;5.60;2.90;;;5.80;99.90;;;;;;4940944;28;20233;-53
2023/12/13 04:42:06;;;;;;;3.20;2.63;;;5.70;99.90;;;;;;4948290;28;20175;-56
2023/12/13 04:44:31;;;;;;;5.03;2.63;;;5.70;99.90;;;;;;4948848;28;20186;-55
2023/12/13 04:46:57;;;;;;;4.37;3.30;;;5.70;99.90;;;;;;4944987;28;20298;-54
2023/12/13 04:49:23;;;;;;;5.53;3.20;;;5.70;99.90;;;;;;4944947;28;20562;-55
2023/12/13 04:51:49;;;;;;;5.10;3.60;;;5.60;99.90;;;;;;4950070;28;20422;-54
2023/12/13 04:54:15;;;;;;;4.50;3.97;;;5.70;99.90;;;;;;4949704;28;20938;-54
2023/12/13 04:56:40;;;;;;;5.30;3.83;;;5.60;99.90;;;;;;4949063;28;20217;-55
2023/12/13 04:59:06;;;;;;;3.60;3.10;;;5.60;99.90;;;;;;4950938;28;20506;-54
2023/12/13 05:01:31;;;;;;;6.97;3.13;;;5.60;99.90;;;;;;4951286;28;20191;-52
2023/12/13 05:03:57;;;;;;;13.47;5.47;;;5.70;99.90;;;;;;4946638;28;20206;-53
2023/12/13 05:06:23;;;;;;;9.37;3.50;;;5.70;99.90;;;;;;4950345;28;20183;-55
2023/12/13 05:08:48;;;;;;;5.37;3.53;;;5.70;99.90;;;;;;4950379;28;20182;-56
2023/12/13 05:11:14;;;;;;;7.97;3.53;;;5.80;99.90;;;;;;4951071;28;20189;-54
2023/12/13 05:13:39;;;;;;;5.77;3.40;;;5.80;99.90;;;;;;4942653;28;20214;-54
2023/12/13 05:16:06;;;;;;;4.10;2.10;;;5.80;99.90;;;;;;4948709;28;20197;-54
2023/12/13 05:18:32;;;;;;;2.70;2.30;;;5.80;99.90;;;;;;4944382;28;20203;-53
2023/12/13 05:20:58;;;;;;;2.50;2.00;;;5.80;99.90;;;;;;4950978;28;20428;-56
2023/12/13 05:23:25;;;;;;;8.87;2.30;;;5.90;99.90;;;;;;4945701;28;20213;-54
2023/12/13 05:25:51;;;;;;;6.83;2.37;;;5.90;99.90;;;;;;4951016;28;20177;-53
2023/12/13 05:28:17;;;;;;;5.40;2.70;;;5.90;99.90;;;;;;4949537;28;20425;-54
2023/12/13 05:30:42;;;;;;;3.13;2.40;;;5.90;99.90;;;;;;4945581;28;20469;-54
2023/12/13 05:33:08;;;;;;;3.20;2.10;;;6.00;99.90;;;;;;4950415;28;20438;-55
2023/12/13 05:35:34;;;;;;;5.77;2.20;;;6.00;99.90;;;;;;4949963;28;20186;-55
2023/12/13 05:38:00;;;;;;;9.80;2.70;;;6.00;99.90;;;;;;4948636;28;20199;-56
2023/12/13 05:40:25;;;;;;;6.53;2.57;;;6.00;99.90;;;;;;4950361;28;20430;-55
2023/12/13 05:42:51;;;;;;;2.97;1.80;;;6.00;99.90;;;;;;4947701;28;20213;-54
2023/12/13 05:45:17;;;;;;;4.10;2.30;;;6.00;99.90;;;;;;4949805;28;20242;-54
2023/12/13 05:47:42;;;;;;;3.83;2.20;;;6.00;99.90;;;;;;4947174;28;20716;-54
2023/12/13 05:50:08;;;;;;;7.20;2.50;;;6.00;99.90;;;;;;4950266;28;20178;-57
2023/12/13 05:52:34;;;;;;;8.50;3.03;;;6.10;99.90;;;;;;4950715;28;20202;-56
2023/12/13 05:54:59;;;;;;;3.53;2.20;;;6.10;99.90;;;;;;4942870;28;20699;-55
2023/12/13 05:57:25;;;;;;;3.27;2.27;;;6.10;99.90;;;;;;4951940;28;20202;-53
2023/12/13 05:59:51;;;;;;;6.20;2.60;;;6.10;99.90;;;;;;4949626;28;20175;-55
2023/12/13 06:02:16;;;;;;;4.80;3.30;;;6.10;99.90;;;;;;4945637;28;20616;-54
2023/12/13 06:04:43;;;;;;;12.57;4.97;;;6.20;99.90;;;;;;4946423;28;20180;-56
2023/12/13 06:07:09;;;;;;;10.50;5.53;;;6.10;99.90;;;;;;4950269;28;20188;-55
2023/12/13 06:09:35;;;;;;;9.07;3.93;;;6.20;99.90;;;;;;4946724;28;20427;-55
2023/12/13 06:12:03;;;;;;;9.97;4.03;;;6.20;99.90;;;;;;4946469;28;20439;-53
2023/12/13 06:14:29;;;;;;;5.90;3.10;;;6.20;99.90;;;;;;4949516;28;20175;-56
2023/12/13 06:16:55;;;;;;;10.47;3.23;;;6.20;99.90;;;;;;4943266;28;20455;-55
2023/12/13 06:19:21;;;;;;;4.47;2.43;;;6.20;99.90;;;;;;4949579;28;20462;-56
2023/12/13 06:21:46;;;;;;;5.57;2.93;;;6.20;99.90;;;;;;4945045;28;20481;-55
2023/12/13 06:24:12;;;;;;;3.73;2.60;;;6.20;99.90;;;;;;4948998;28;21018;-54
2023/12/13 06:26:38;;;;;;;3.87;2.77;;;6.20;99.90;;;;;;4950415;28;20182;-56
2023/12/13 06:29:04;;;;;;;8.00;2.47;;;6.20;99.90;;;;;;4948930;28;20233;-54
2023/12/13 06:31:30;;;;;;;3.47;2.40;;;6.20;99.90;;;;;;4950695;28;20174;-55
2023/12/13 06:33:56;;;;;;;3.63;2.43;;;6.20;99.90;;;;;;4948106;28;20895;-54
2023/12/13 06:36:21;;;;;;;5.33;2.73;;;6.20;99.90;;;;;;4948702;28;20410;-55
2023/12/13 06:38:47;;;;;;;6.00;3.10;;;6.20;99.90;;;;;;4946794;28;20269;-55
2023/12/13 06:41:13;;;;;;;9.27;3.17;;;6.20;99.90;;;;;;4950397;28;20178;-56
2023/12/13 06:43:38;;;;;;;5.03;2.40;;;6.10;99.90;;;;;;4953071;28;20228;-53
2023/12/13 06:46:04;;;;;;;4.10;3.20;;;6.10;99.90;;;;;;4947798;28;20210;-52
2023/12/13 06:48:30;;;;;;;8.60;3.87;;;6.10;99.90;;;;;;4953684;28;20221;-54
2023/12/13 06:50:56;;;;;;;7.73;3.57;;;6.00;99.90;;;;;;4952535;28;20186;-55
2023/12/13 06:53:21;;;;;;;5.23;3.50;;;6.00;99.90;;;;;;4949786;28;20287;-56
2023/12/13 06:55:47;;;;;;;7.00;3.63;;;6.00;99.90;;;;;;4947311;28;20179;-54
2023/12/13 06:58:13;;;;;;;3.97;2.70;;;6.00;99.90;;;;;;4953652;28;20202;-56
2023/12/13 07:00:39;;;;;;;5.70;3.23;;;5.90;99.90;;;;;;4947081;28;20729;-54
2023/12/13 07:03:05;;;;;;;7.30;3.37;;;5.90;99.90;;;;;;4951077;28;21007;-55
2023/12/13 07:05:30;;;;;;;3.07;2.77;;;5.90;99.90;;;;;;4953019;28;20171;-53
2023/12/13 07:07:56;;;;;;;4.50;2.80;;;5.90;99.90;;;;;;4950006;28;20669;-54
2023/12/13 07:10:21;;;;;;;9.80;3.47;;;5.90;99.90;;;;;;4951604;28;20183;-54
2023/12/13 07:12:48;;;;;;;4.87;3.17;;;6.00;99.90;;;;;;4948149;28;20754;-54
2023/12/13 07:15:14;;;;;;;5.43;3.00;;;5.90;99.90;;;;;;4959293;28;20262;-54
2023/12/13 07:17:42;;;;;;;6.50;3.50;;;6.00;99.90;;;;;;4949104;28;20835;-54
2023/12/13 07:20:08;;;;;;;7.47;3.87;;;5.90;99.90;;;;;;4948742;28;20450;-53
2023/12/13 07:22:34;;;;;;;7.60;3.30;;;6.00;99.90;;;;;;4951817;28;20816;-55
2023/12/13 07:24:59;;;;;;;8.40;3.70;;;6.00;99.90;;;;;;4943735;28;20541;-54
2023/12/13 07:27:25;;;;;;;6.40;3.77;;;6.00;99.90;;;;;;4949942;28;20194;-54
2023/12/13 07:29:50;;;;;;;6.50;3.70;;;6.00;99.90;;;;;;4948008;28;20198;-56
2023/12/13 07:32:16;;;;;;;5.50;3.70;;;6.00;99.90;;;;;;4953049;28;20196;-55
2023/12/13 07:34:44;;;;;;;7.50;3.40;;;6.10;99.90;;;;;;4952471;28;20203;-55
2023/12/13 07:37:10;;;;;;;5.40;3.33;;;6.10;99.90;;;;;;4949348;28;20559;-54
2023/12/13 07:39:38;;;;;;;6.20;3.47;;;6.20;99.90;;;;;;4950449;28;20445;-54
2023/12/13 07:42:04;;;;;;;5.53;3.33;;;6.20;99.90;;;;;;4946445;28;20179;-55
2023/12/13 07:44:33;;;;;;;5.53;3.10;;;6.20;99.90;;;;;;4947961;28;20866;-54
2023/12/13 07:47:02;;;;;;;6.30;3.60;;;6.30;99.90;;;;;;4952329;28;20183;-54
2023/12/13 07:49:28;;;;;;;10.10;4.30;;;6.30;99.90;;;;;;4948790;28;20431;-54
2023/12/13 07:51:54;;;;;;;7.10;5.00;;;6.30;99.90;;;;;;4951322;28;20531;-55
2023/12/13 07:54:20;;;;;;;8.60;5.37;;;6.30;99.90;;;;;;4948513;28;20461;-55
2023/12/13 07:56:45;;;;;;;5.33;4.23;;;6.40;99.90;;;;;;4951801;28;20484;-55
2023/12/13 07:59:12;;;;;;;7.13;5.37;;;6.40;99.90;;;;;;4954190;28;20214;-58
2023/12/13 08:01:37;;;;;;;5.13;4.63;;;6.40;99.90;;;;;;4948945;28;20182;-55
2023/12/13 08:04:03;;;;;;;9.00;4.80;;;6.40;99.90;;;;;;4950735;28;20501;-53
2023/12/13 08:06:29;;;;;;;5.87;4.40;;;6.40;99.90;;;;;;4951261;28;20737;-55
2023/12/13 08:08:55;;;;;;;4.57;4.10;;;6.40;99.90;;;;;;4956123;28;20187;-54
2023/12/13 08:11:20;;;;;;;7.30;4.57;;;6.40;99.90;;;;;;4950983;28;20179;-53
2023/12/13 08:13:46;;;;;;;4.97;3.83;;;6.40;99.90;;;;;;4952294;28;20245;-55
2023/12/13 08:16:11;;;;;;;4.10;3.60;;;6.50;99.90;;;;;;4950980;28;20284;-53
2023/12/13 08:18:38;;;;;;;3.33;3.03;;;6.50;99.90;;;;;;4949392;28;20858;-55
2023/12/13 08:21:06;;;;;;;4.57;3.70;;;6.50;99.90;;;;;;4942912;28;20179;-55
2023/12/13 08:23:34;;;;;;;4.20;3.07;;;6.40;99.90;;;;;;4950408;28;20478;-52
2023/12/13 08:26:00;;;;;;;3.40;3.10;;;6.50;99.90;;;;;;4951692;28;20441;-58
2023/12/13 08:28:25;;;;;;;5.00;3.33;;;6.50;99.90;;;;;;4951798;28;20840;-54
2023/12/13 08:30:51;;;;;;;5.33;3.50;;;6.50;99.90;;;;;;4950675;28;20265;-54
2023/12/13 08:33:16;;;;;;;3.60;3.30;;;6.50;99.90;;;;;;4951032;28;20586;-56
2023/12/13 08:35:42;;;;;;;3.60;2.80;;;6.50;99.90;;;;;;4948410;28;20187;-57
2023/12/13 08:38:08;;;;;;;8.00;3.40;;;6.60;99.90;;;;;;4944717;28;20207;-56
2023/12/13 08:40:33;;;;;;;8.70;3.70;;;6.50;99.90;;;;;;4949290;28;20186;-53
2023/12/13 08:42:59;;;;;;;4.23;3.77;;;6.60;99.90;;;;;;4950316;28;20230;-55
2023/12/13 08:45:24;;;;;;;8.27;4.70;;;6.60;99.90;;;;;;4951790;28;20189;-56
2023/12/13 08:47:50;;;;;;;8.53;4.80;;;6.60;99.90;;;;;;4949452;28;20733;-53
2023/12/13 08:50:16;;;;;;;5.80;3.53;;;6.60;99.90;;;;;;4949938;28;20178;-55
2023/12/13 08:52:41;;;;;;;3.40;3.10;;;6.60;99.90;;;;;;4952002;28;20257;-53
2023/12/13 08:55:10;;;;;;;4.97;3.30;;;6.60;99.90;;;;;;4949861;28;20182;-55
2023/12/13 08:57:37;;;;;;;5.87;3.20;;;6.60;99.90;;;;;;4948850;28;20210;-53
2023/12/13 09:00:06;;;;;;;6.10;3.47;;;6.70;99.90;;;;;;4948308;28;20426;-55
2023/12/13 09:02:32;;;;;;;2.63;2.43;;;6.70;99.90;;;;;;4945174;28;20454;-53
2023/12/13 09:04:57;;;;;;;3.77;2.77;;;6.70;99.90;;;;;;4943620;28;20882;-54
2023/12/13 09:07:23;;;;;;;5.13;2.43;;;6.80;99.90;;;;;;4949058;28;20183;-56
2023/12/13 09:09:49;;;;;;;4.67;2.77;;;6.80;99.90;;;;;;4947738;28;20178;-54
2023/12/13 09:12:14;;;;;;;3.03;2.53;;;6.90;99.90;;;;;;4948330;28;20246;-54
2023/12/13 09:14:40;;;;;;;2.10;1.90;;;6.90;99.90;;;;;;4946699;28;20210;-55
2023/12/13 09:17:05;;;;;;;3.50;2.00;;;7.00;99.90;;;;;;4946149;28;20187;-56
2023/12/13 09:19:31;;;;;;;4.80;2.40;;;7.00;99.90;;;;;;4949416;28;20245;-55
2023/12/13 09:21:57;;;;;;;3.40;2.90;;;7.00;99.90;;;;;;4945696;28;20332;-55
2023/12/13 09:24:22;;;;;;;2.83;2.50;;;7.00;99.90;;;;;;4950321;28;20825;-53
2023/12/13 09:26:49;;;;;;;2.90;2.13;;;7.10;99.90;;;;;;4948684;28;20182;-53
2023/12/13 09:29:14;;;;;;;2.73;2.20;;;7.00;99.90;;;;;;4942755;28;20233;-53
2023/12/13 09:31:40;;;;;;;2.00;1.90;;;7.00;99.90;;;;;;4951177;28;21335;-54
2023/12/13 09:34:06;;;;;;;2.30;2.10;;;7.00;99.90;;;;;;4948454;28;20214;-55
2023/12/13 09:36:33;;;;;;;2.23;1.80;;;7.00;99.90;;;;;;4941196;28;20274;-53
2023/12/13 09:38:58;;;;;;;2.00;1.80;;;7.00;99.90;;;;;;4949137;28;20457;-54
2023/12/13 09:41:30;;;;;;;1.87;1.77;;;7.00;99.90;;;;;;4945883;28;20509;-56
2023/12/13 09:43:57;;;;;;;4.40;2.30;;;6.90;99.90;;;;;;4947220;28;20349;-56
2023/12/13 09:46:25;;;;;;;2.40;2.20;;;6.90;99.90;;;;;;4948705;28;21031;-58
2023/12/13 09:48:51;;;;;;;2.50;1.50;;;6.90;99.90;;;;;;4945895;28;20437;-56
2023/12/13 09:51:19;;;;;;;1.70;1.60;;;6.90;99.90;;;;;;4957848;28;20452;-55
2023/12/13 09:53:48;;;;;;;2.63;1.60;;;6.90;99.90;;;;;;4952669;28;20493;-54
2023/12/13 09:56:14;;;;;;;4.90;2.10;;;6.90;99.90;;;;;;4946884;28;20470;-54
2023/12/13 09:58:40;;;;;;;4.20;1.60;;;6.90;99.90;;;;;;4951082;28;21070;-54
2023/12/13 10:01:12;;;;;;;2.07;1.93;;;6.90;99.90;;;;;;4949701;28;20234;-54
2023/12/13 10:03:42;;;;;;;3.13;1.73;;;6.90;99.90;;;;;;4949970;28;20454;-53
2023/12/13 10:06:09;;;;;;;2.60;1.83;;;6.90;99.90;;;;;;4949691;28;20493;-54
2023/12/13 10:08:35;;;;;;;1.90;1.80;;;6.90;99.90;;;;;;4947101;28;20430;-53
2023/12/13 10:11:04;;;;;;;2.43;2.00;;;6.90;99.90;;;;;;4943985;28;20422;-55
2023/12/13 10:13:31;;;;;;;1.87;1.77;;;6.80;99.90;;;;;;4949715;28;20880;-54
2023/12/13 10:16:11;;;;;;;6.30;2.07;;;6.90;99.90;;;;;;4943581;28;20892;-56
2023/12/13 10:18:38;;;;;;;2.30;2.10;;;6.90;99.90;;;;;;4949686;28;21160;-54
2023/12/13 10:21:05;;;;;;;2.80;1.73;;;6.80;99.90;;;;;;4948275;28;20411;-54
2023/12/13 10:23:30;;;;;;;3.60;3.10;;;6.80;99.90;;;;;;4951123;28;20835;-54
2023/12/13 10:25:56;;;;;;;1.93;1.73;;;6.90;99.90;;;;;;4952728;28;20202;-53
2023/12/13 10:28:22;;;;;;;4.80;2.60;;;6.90;99.90;;;;;;4953663;28;20187;-55
2023/12/13 10:30:52;;;;;;;5.10;2.50;;;6.90;99.90;;;;;;4953210;28;20183;-54
2023/12/13 10:33:18;;;;;;;3.40;2.10;;;7.00;99.90;;;;;;4948349;28;20493;-52
2023/12/13 10:35:43;;;;;;;4.10;2.30;;;7.00;99.90;;;;;;4953831;28;20437;-54
2023/12/13 10:38:14;;;;;;;2.93;2.63;;;7.00;99.90;;;;;;4955924;28;20457;-54
2023/12/13 10:40:42;;;;;;;3.17;2.57;;;7.00;99.90;;;;;;4949827;28;20183;-53
2023/12/13 10:43:10;;;;;;;3.07;2.50;;;7.00;99.90;;;;;;4950417;28;20470;-54
2023/12/13 10:45:39;;;;;;;2.23;1.70;;;7.10;99.90;;;;;;4953415;28;20441;-53
2023/12/13 10:48:08;;;;;;;1.67;1.57;;;7.10;99.90;;;;;;4945589;28;20434;-55
2023/12/13 10:50:35;;;;;;;1.60;1.50;;;7.10;99.90;;;;;;4953680;28;20426;-53
2023/12/13 10:53:02;;;;;;;3.53;2.00;;;7.20;99.90;;;;;;4953013;28;20442;-55
2023/12/13 10:55:28;;;;;;;2.03;1.70;;;7.20;99.90;;;;;;4946832;28;20419;-54
2023/12/13 10:57:55;;;;;;;3.93;2.27;;;7.30;99.90;;;;;;4941020;28;20553;-57
2023/12/13 11:00:24;;;;;;;3.30;2.70;;;7.30;99.90;;;;;;4945317;28;20414;-54
2023/12/13 11:03:02;;;;;;;2.67;1.80;;;7.30;99.90;;;;;;4952616;28;20445;-54
2023/12/13 11:05:28;;;;;;;2.00;1.90;;;7.40;99.90;;;;;;4950232;28;20437;-52
2023/12/13 11:07:53;;;;;;;2.00;1.70;;;7.50;99.90;;;;;;4951839;28;20428;-56
2023/12/13 11:10:19;;;;;;;2.07;1.60;;;7.50;99.90;;;;;;4950663;28;20641;-54
2023/12/13 11:12:49;;;;;;;4.10;1.70;;;7.50;99.90;;;;;;4952287;28;20717;-54
2023/12/13 11:15:16;;;;;;;1.83;1.73;;;7.60;99.90;;;;;;4949619;28;20190;-57
2023/12/13 11:17:48;;;;;;;2.00;1.60;;;7.60;99.90;;;;;;4958296;28;20532;-57
2023/12/13 11:20:14;;;;;;;4.20;1.83;;;7.60;99.90;;;;;;4951648;28;20442;-54
2023/12/13 11:22:45;;;;;;;1.60;1.50;;;7.60;99.90;;;;;;4946314;28;20473;-55
2023/12/13 11:25:11;;;;;;;1.80;1.70;;;7.60;99.90;;;;;;4951791;28;20481;-57
2023/12/13 11:27:46;;;;;;;1.43;1.30;;;7.50;99.90;;;;;;4953478;28;20426;-57
2023/12/13 11:30:15;;;;;;;1.40;1.30;;;7.50;99.90;;;;;;4950963;28;20800;-55
2023/12/13 11:32:47;;;;;;;2.00;1.80;;;7.50;99.90;;;;;;4959824;28;20549;-55
2023/12/13 11:35:15;;;;;;;2.00;1.50;;;7.50;99.90;;;;;;4951387;28;20429;-56
2023/12/13 11:37:41;;;;;;;1.87;1.43;;;7.50;99.90;;;;;;4952574;28;20469;-54
2023/12/13 11:40:09;;;;;;;1.73;1.40;;;7.50;99.90;;;;;;4950284;28;22157;-54
2023/12/13 11:42:34;;;;;;;2.80;1.80;;;7.50;99.90;;;;;;4949754;28;20430;-55
2023/12/13 11:45:00;;;;;;;3.17;1.70;;;7.40;99.90;;;;;;4953094;28;20497;-54
2023/12/13 11:47:25;;;;;;;2.87;2.30;;;7.40;99.90;;;;;;4948785;28;20215;-57
2023/12/13 11:49:51;;;;;;;4.13;1.90;;;7.40;99.90;;;;;;4946363;28;20170;-55
2023/12/13 11:52:17;;;;;;;2.20;1.70;;;7.50;99.90;;;;;;4947894;28;20189;-54
2023/12/13 11:54:42;;;;;;;1.60;1.50;;;7.50;99.90;;;;;;4953315;28;20560;-55
2023/12/13 11:57:15;;;;;;;7.10;1.67;;;7.50;99.90;;;;;;4948255;28;20588;-56
2023/12/13 11:59:42;;;;;;;3.13;1.70;;;7.50;99.90;;;;;;4949963;28;20182;-55
2023/12/13 12:02:09;;;;;;;4.93;1.80;;;7.60;99.90;;;;;;4954263;28;20433;-56
2023/12/13 12:04:35;;;;;;;2.93;1.90;;;7.60;99.90;;;;;;4950390;28;20425;-54
2023/12/13 12:07:01;;;;;;;2.07;1.80;;;7.50;99.90;;;;;;4944893;28;20419;-54
2023/12/13 12:09:27;;;;;;;3.00;1.27;;;7.50;99.90;;;;;;4951245;28;20434;-55
2023/12/13 12:11:54;;;;;;;1.40;1.30;;;7.50;99.90;;;;;;4949547;28;20182;-54
2023/12/13 12:14:19;;;;;;;1.70;1.60;;;7.50;99.90;;;;;;4949508;28;20488;-54
2023/12/13 12:16:45;;;;;;;3.33;1.40;;;7.50;99.90;;;;;;4951651;28;21328;-54
2023/12/13 12:19:11;;;;;;;1.33;1.23;;;7.50;99.90;;;;;;4949560;28;20202;-55
2023/12/13 12:21:37;;;;;;;1.40;1.30;;;7.50;99.90;;;;;;4949495;28;20314;-56
2023/12/13 12:24:03;;;;;;;1.33;1.23;;;7.50;99.90;;;;;;4955698;28;20218;-53
2023/12/13 12:26:29;;;;;;;2.40;1.50;;;7.50;99.90;;;;;;4951476;28;20681;-57
2023/12/13 12:28:54;;;;;;;4.00;1.23;;;7.50;99.90;;;;;;4959412;28;20456;-54
2023/12/13 12:31:20;;;;;;;1.80;1.10;;;7.60;99.90;;;;;;4951102;28;20179;-53
2023/12/13 12:33:56;;;;;;;1.10;1.00;;;7.60;99.90;;;;;;4951334;28;20218;-54
2023/12/13 12:36:22;;;;;;;1.17;1.10;;;7.60;99.90;;;;;;4943797;28;20307;-54
2023/12/13 12:38:47;;;;;;;3.47;1.20;;;7.60;99.90;;;;;;4948897;28;20564;-54
2023/12/13 12:41:15;;;;;;;1.10;1.00;;;7.60;99.90;;;;;;4951505;28;20445;-55
2023/12/13 12:43:40;;;;;;;1.60;1.50;;;7.70;99.90;;;;;;4947832;28;20205;-54
2023/12/13 12:46:06;;;;;;;1.00;1.00;;;7.60;99.90;;;;;;4950981;28;20422;-57
2023/12/13 12:48:32;;;;;;;1.10;1.10;;;7.70;99.90;;;;;;4951089;28;20179;-56
2023/12/13 12:50:58;;;;;;;3.40;1.30;;;7.70;99.90;;;;;;4943396;28;20269;-54
2023/12/13 12:53:24;;;;;;;2.10;1.37;;;7.60;99.90;;;;;;4934431;28;20594;-55